createdAt,value
2022-12-26T00:00:57.768Z,5.15
2022-12-26T00:03:24.730Z,4.82
2022-12-26T00:05:51.613Z,4.80
2022-12-26T00:08:18.606Z,3.45
2022-12-26T00:10:45.421Z,8.65
2022-12-26T00:13:39.353Z,7.53
2022-12-26T00:15:58.997Z,7.05
2022-12-26T00:18:25.783Z,6.25
2022-12-26T00:20:52.560Z,5.13
2022-12-26T00:23:19.317Z,8.20
2022-12-26T00:25:46.067Z,5.03
2022-12-26T00:28:12.807Z,6.90
2022-12-26T00:30:39.651Z,6.35
2022-12-26T00:33:06.481Z,3.97
2022-12-26T00:35:33.346Z,3.33
2022-12-26T00:38:00.149Z,3.47
2022-12-26T00:40:26.958Z,7.03
2022-12-26T00:42:53.773Z,7.13
2022-12-26T00:45:20.631Z,3.55
2022-12-26T00:47:47.395Z,5.95
2022-12-26T00:50:15.833Z,5.63
2022-12-26T00:52:43.082Z,8.10
2022-12-26T00:55:10.304Z,7.72
2022-12-26T00:57:37.068Z,5.03
2022-12-26T01:00:04.830Z,4.80
2022-12-26T01:02:40.751Z,15.32
2022-12-26T01:05:09.167Z,5.63
2022-12-26T01:08:20.057Z,8.88
2022-12-26T01:10:23.762Z,5.30
2022-12-26T01:12:50.511Z,4.95
2022-12-26T01:15:17.439Z,3.63
2022-12-26T01:17:44.297Z,7.85
2022-12-26T01:20:11.434Z,4.43
2022-12-26T01:22:38.295Z,4.85
2022-12-26T01:25:05.591Z,4.97
2022-12-26T01:27:32.335Z,3.65
2022-12-26T01:29:59.093Z,10.05
2022-12-26T01:32:25.828Z,6.47
2022-12-26T01:34:55.437Z,12.43
2022-12-26T01:37:23.547Z,5.38
2022-12-26T01:39:51.235Z,4.47
2022-12-26T01:42:20.822Z,3.80
2022-12-26T01:45:02.751Z,2.63
2022-12-26T01:47:46.911Z,10.00
2022-12-26T01:50:23.543Z,8.68
2022-12-26T01:52:50.309Z,7.25
2022-12-26T01:55:17.961Z,6.53
2022-12-26T01:57:47.580Z,3.60
2022-12-26T02:00:14.654Z,4.38
2022-12-26T02:03:00.381Z,2.95
2022-12-26T02:05:33.960Z,8.73
2022-12-26T02:08:21.884Z,7.90
2022-12-26T02:11:09.426Z,8.73
2022-12-26T02:13:37.029Z,7.85
2022-12-26T02:16:04.994Z,5.03
2022-12-26T02:18:31.869Z,3.13
2022-12-26T02:20:58.597Z,5.35
2022-12-26T02:23:30.988Z,8.75
2022-12-26T02:26:16.488Z,3.75
2022-12-26T02:29:06.555Z,3.53
2022-12-26T02:32:11.221Z,5.05
2022-12-26T02:34:52.014Z,3.25
2022-12-26T02:37:41.395Z,3.78
2022-12-26T02:40:49.585Z,3.88
2022-12-26T02:43:24.057Z,3.67
2022-12-26T02:46:23.290Z,8.25
2022-12-26T02:48:58.941Z,5.05
2022-12-26T02:51:47.491Z,7.93
2022-12-26T02:54:45.026Z,3.58
2022-12-26T02:57:32.441Z,5.25
2022-12-26T03:00:30.347Z,6.97
2022-12-26T03:03:19.753Z,6.88
2022-12-26T03:06:11.278Z,3.88
2022-12-26T03:09:05.240Z,2.72
2022-12-26T03:14:22.617Z,10.32
2022-12-26T03:17:09.813Z,4.97
2022-12-26T03:19:37.335Z,6.57
2022-12-26T03:22:24.051Z,4.05
2022-12-26T03:25:09.375Z,5.97
2022-12-26T03:27:36.115Z,4.90
2022-12-26T03:30:21.551Z,5.35
2022-12-26T03:32:48.275Z,6.82
2022-12-26T03:35:16.228Z,7.88
2022-12-26T03:38:23.099Z,3.50
2022-12-26T03:41:14.788Z,8.57
2022-12-26T03:44:30.342Z,5.82
2022-12-26T03:47:38.633Z,4.53
2022-12-26T03:50:29.709Z,3.92
2022-12-26T03:53:28.238Z,3.13
2022-12-26T03:56:32.679Z,5.65
2022-12-26T03:59:26.307Z,9.35
2022-12-26T04:02:11.740Z,6.40
2022-12-26T04:04:58.699Z,3.60
2022-12-26T04:07:56.282Z,6.00
2022-12-26T04:10:47.858Z,3.22
2022-12-26T04:13:37.789Z,6.80
2022-12-26T04:16:35.322Z,3.67
2022-12-26T04:19:32.477Z,2.85
2022-12-26T04:22:39.439Z,3.15
2022-12-26T04:25:50.155Z,8.07
2022-12-26T04:28:40.388Z,6.38
2022-12-26T04:31:42.136Z,7.40
2022-12-26T04:34:34.383Z,3.13
2022-12-26T04:37:21.507Z,5.60
2022-12-26T04:40:08.671Z,5.43
2022-12-26T04:42:53.955Z,3.78
2022-12-26T04:45:21.067Z,3.53
2022-12-26T04:48:07.764Z,4.00
2022-12-26T04:50:34.701Z,5.38
2022-12-26T04:53:01.551Z,9.10
2022-12-26T04:55:30.063Z,5.85
2022-12-26T04:57:57.008Z,2.38
2022-12-26T05:00:28.106Z,6.97
2022-12-26T05:03:18.759Z,4.72
2022-12-26T05:06:06.422Z,5.40
2022-12-26T05:08:53.112Z,4.55
2022-12-26T05:11:19.898Z,6.20
2022-12-26T05:13:46.675Z,5.78
2022-12-26T05:16:32.096Z,4.10
2022-12-26T05:19:17.289Z,4.70
2022-12-26T05:22:02.807Z,2.85
2022-12-26T05:24:53.624Z,3.85
2022-12-26T05:27:39.258Z,5.65
2022-12-26T05:30:06.886Z,4.75
2022-12-26T05:32:52.427Z,6.75
2022-12-26T05:35:19.270Z,4.93
2022-12-26T05:37:47.296Z,5.47
2022-12-26T05:40:14.123Z,10.55
2022-12-26T05:42:40.926Z,6.15
2022-12-26T05:45:08.296Z,6.47
2022-12-26T05:47:35.056Z,4.60
2022-12-26T05:50:02.072Z,6.97
2022-12-26T05:52:28.873Z,2.50
2022-12-26T05:54:56.220Z,7.40
2022-12-26T05:57:22.972Z,14.95
2022-12-26T05:59:49.729Z,3.35
2022-12-26T06:02:16.649Z,4.25
2022-12-26T06:04:43.523Z,6.68
2022-12-26T06:07:10.275Z,5.32
2022-12-26T06:09:37.098Z,5.07
2022-12-26T06:12:03.899Z,7.10
2022-12-26T06:14:30.611Z,6.38
2022-12-26T06:16:57.349Z,3.72
2022-12-26T06:19:24.101Z,2.67
2022-12-26T06:21:50.865Z,6.72
2022-12-26T06:24:19.871Z,2.33
2022-12-26T06:26:46.795Z,3.28
2022-12-26T06:29:13.529Z,12.93
2022-12-26T06:31:40.325Z,3.95
2022-12-26T06:34:07.846Z,2.67
2022-12-26T06:36:35.096Z,4.65
2022-12-26T06:39:02.307Z,2.72
2022-12-26T06:41:30.070Z,3.70
2022-12-26T06:43:57.164Z,4.55
2022-12-26T06:46:25.019Z,3.97
2022-12-26T06:48:52.258Z,4.22
2022-12-26T06:51:26.305Z,4.05
2022-12-26T06:53:53.480Z,7.05
2022-12-26T06:56:24.732Z,3.00
2022-12-26T06:58:55.628Z,2.67
2022-12-26T07:01:22.888Z,4.25
2022-12-26T07:03:52.440Z,3.28
2022-12-26T07:06:23.247Z,3.47
2022-12-26T07:08:50.438Z,4.25
2022-12-26T07:11:18.461Z,4.13
2022-12-26T07:13:45.217Z,3.67
2022-12-26T07:16:13.057Z,3.03
2022-12-26T07:18:40.819Z,3.60
2022-12-26T07:21:08.174Z,4.28
2022-12-26T07:23:35.757Z,9.85
2022-12-26T07:26:02.715Z,7.38
2022-12-26T07:28:29.572Z,7.50
2022-12-26T07:31:59.231Z,2.92
2022-12-26T07:34:31.333Z,3.05
2022-12-26T07:36:59.980Z,5.68
2022-12-26T07:39:26.760Z,3.20
2022-12-26T07:41:59.696Z,3.75
2022-12-26T07:44:30.764Z,6.22
2022-12-26T07:46:58.046Z,3.45
2022-12-26T07:49:24.989Z,5.00
2022-12-26T07:51:51.962Z,4.05
2022-12-26T07:54:18.993Z,7.57
2022-12-26T07:56:45.759Z,3.95
2022-12-26T07:59:16.585Z,3.53
2022-12-26T08:01:43.668Z,14.20
2022-12-26T08:04:11.562Z,4.90
2022-12-26T08:06:38.370Z,4.05
2022-12-26T08:09:05.357Z,3.78
2022-12-26T08:11:34.270Z,4.22
2022-12-26T08:14:02.528Z,5.03
2022-12-26T08:16:31.052Z,5.95
2022-12-26T08:18:57.973Z,3.40
2022-12-26T08:21:24.717Z,4.60
2022-12-26T08:23:51.563Z,11.60
2022-12-26T08:26:22.537Z,22.63
2022-12-26T08:28:50.598Z,17.23
2022-12-26T08:31:17.694Z,16.83
2022-12-26T08:33:44.804Z,6.63
2022-12-26T08:36:12.950Z,4.82
2022-12-26T08:38:40.301Z,3.83
2022-12-26T08:41:07.201Z,8.15
2022-12-26T08:44:09.902Z,6.47
2022-12-26T08:46:21.518Z,8.18
2022-12-26T08:48:48.595Z,5.15
2022-12-26T08:51:19.770Z,3.50
2022-12-26T08:53:47.053Z,12.00
2022-12-26T08:56:15.211Z,6.55
2022-12-26T08:58:42.183Z,6.68
2022-12-26T09:01:11.993Z,3.35
2022-12-26T09:03:39.338Z,5.60
2022-12-26T09:06:06.832Z,4.95
2022-12-26T09:08:36.818Z,3.92
2022-12-26T09:11:14.551Z,4.18
2022-12-26T09:13:41.672Z,6.25
2022-12-26T09:16:12.727Z,9.93
2022-12-26T09:18:39.902Z,8.30
2022-12-26T09:21:08.444Z,8.93
2022-12-26T09:23:35.677Z,12.35
2022-12-26T09:26:09.485Z,9.85
2022-12-26T09:28:36.558Z,11.27
2022-12-26T09:31:05.135Z,9.43
2022-12-26T09:33:33.355Z,10.02
2022-12-26T09:36:04.568Z,13.90
2022-12-26T09:38:33.194Z,11.60
2022-12-26T09:41:04.445Z,11.48
2022-12-26T09:43:51.061Z,9.68
2022-12-26T09:46:36.677Z,15.88
2022-12-26T09:49:13.661Z,13.55
2022-12-26T09:51:41.271Z,13.15
2022-12-26T09:54:09.647Z,12.65
2022-12-26T09:57:01.692Z,9.57
2022-12-26T09:59:26.118Z,16.73
2022-12-26T10:01:53.443Z,9.75
2022-12-26T10:04:29.899Z,6.45
2022-12-26T10:07:02.950Z,6.57
2022-12-26T10:10:04.106Z,8.77
2022-12-26T10:13:07.631Z,9.55
2022-12-26T10:15:40.449Z,7.20
2022-12-26T10:18:16.393Z,10.27
2022-12-26T10:21:06.032Z,6.53
2022-12-26T10:23:35.488Z,7.10
2022-12-26T10:26:18.256Z,6.80
2022-12-26T10:28:59.431Z,4.97
2022-12-26T10:31:51.898Z,4.05
2022-12-26T10:34:26.205Z,7.20
2022-12-26T10:37:02.207Z,10.63
2022-12-26T10:39:30.782Z,7.55
2022-12-26T10:42:00.546Z,8.02
2022-12-26T10:44:29.945Z,5.90
2022-12-26T10:47:15.268Z,3.35
2022-12-26T10:49:42.982Z,5.20
2022-12-26T10:52:09.880Z,7.18
2022-12-26T10:54:36.662Z,8.27
2022-12-26T10:57:03.673Z,8.93
2022-12-26T10:59:42.510Z,7.45
2022-12-26T11:02:23.410Z,5.72
2022-12-26T11:07:54.630Z,23.50
2022-12-26T11:10:24.204Z,8.65
2022-12-26T11:13:01.707Z,6.13
2022-12-26T11:15:32.842Z,4.40
2022-12-26T11:18:19.883Z,3.22
2022-12-26T11:20:47.253Z,2.65
2022-12-26T11:23:28.926Z,4.85
2022-12-26T11:25:57.197Z,2.70
2022-12-26T11:28:42.119Z,7.10
2022-12-26T11:31:25.051Z,3.65
2022-12-26T11:33:51.993Z,6.35
2022-12-26T11:36:20.865Z,4.35
2022-12-26T11:38:56.375Z,5.90
2022-12-26T11:41:42.501Z,4.50
2022-12-26T11:44:14.288Z,2.83
2022-12-26T11:46:49.669Z,3.83
2022-12-26T11:49:29.948Z,4.57
2022-12-26T11:51:59.625Z,2.90
2022-12-26T11:54:37.338Z,4.70
2022-12-26T11:57:23.072Z,3.70
2022-12-26T11:59:50.427Z,4.60
2022-12-26T12:02:28.766Z,3.88
2022-12-26T12:04:59.665Z,3.17
2022-12-26T12:07:37.070Z,6.93
2022-12-26T12:10:10.961Z,5.07
2022-12-26T12:12:52.131Z,3.20
2022-12-26T12:15:57.652Z,4.40
2022-12-26T12:18:40.749Z,2.38
2022-12-26T12:21:43.236Z,2.53
2022-12-26T12:24:29.405Z,2.30
2022-12-26T12:27:22.044Z,3.33
2022-12-26T12:30:08.473Z,1.95
2022-12-26T12:33:09.349Z,2.80
2022-12-26T12:35:57.731Z,3.70
2022-12-26T12:38:29.994Z,3.65
2022-12-26T12:40:59.473Z,7.13
2022-12-26T12:43:29.390Z,2.50
2022-12-26T12:46:31.053Z,3.10
2022-12-26T12:49:03.573Z,2.22
2022-12-26T12:51:59.364Z,2.50
2022-12-26T12:55:05.828Z,2.10
2022-12-26T12:57:49.986Z,4.35
2022-12-26T13:00:24.743Z,4.55
2022-12-26T13:03:11.710Z,2.92
2022-12-26T13:06:13.317Z,5.85
2022-12-26T13:08:48.587Z,1.67
2022-12-26T13:11:29.143Z,1.38
2022-12-26T13:14:15.884Z,4.65
2022-12-26T13:16:48.655Z,1.23
2022-12-26T13:19:20.955Z,1.77
2022-12-26T13:21:48.092Z,2.45
2022-12-26T13:24:41.949Z,1.73
2022-12-26T13:27:14.591Z,1.92
2022-12-26T13:29:46.310Z,2.30
2022-12-26T13:32:23.595Z,1.10
2022-12-26T13:34:51.951Z,0.80
2022-12-26T13:37:37.639Z,3.08
2022-12-26T13:40:13.192Z,2.63
2022-12-26T13:43:17.877Z,4.88
2022-12-26T13:45:48.738Z,2.28
2022-12-26T13:48:15.527Z,1.27
2022-12-26T13:51:01.909Z,1.60
2022-12-26T13:53:32.749Z,3.88
2022-12-26T13:56:09.149Z,1.77
2022-12-26T13:59:06.704Z,2.45
2022-12-26T14:01:55.753Z,2.38
2022-12-26T14:04:50.639Z,1.10
2022-12-26T14:08:02.630Z,2.67
2022-12-26T14:10:37.149Z,0.85
2022-12-26T14:13:35.203Z,1.17
2022-12-26T14:16:16.185Z,1.08
2022-12-26T14:19:15.336Z,2.08
2022-12-26T14:22:12.384Z,2.35
2022-12-26T14:25:17.014Z,2.25
2022-12-26T14:27:55.380Z,1.50
2022-12-26T14:30:24.410Z,2.13
2022-12-26T14:33:06.755Z,1.77
2022-12-26T14:35:33.635Z,1.52
2022-12-26T14:38:34.196Z,0.80
2022-12-26T14:41:06.538Z,0.73
2022-12-26T14:43:40.368Z,1.52
2022-12-26T14:46:32.159Z,0.98
2022-12-26T14:49:00.232Z,0.88
2022-12-26T14:51:29.349Z,1.02
2022-12-26T14:54:27.564Z,2.38
2022-12-26T14:56:54.551Z,5.60
2022-12-26T14:59:32.060Z,2.90
2022-12-26T15:02:09.836Z,1.70
2022-12-26T15:05:04.083Z,1.83
2022-12-26T15:08:04.755Z,1.50
2022-12-26T15:10:51.041Z,1.63
2022-12-26T15:13:45.385Z,3.30
2022-12-26T15:16:34.088Z,2.10
2022-12-26T15:19:34.716Z,2.33
2022-12-26T15:22:34.476Z,2.70
2022-12-26T15:25:21.380Z,2.47
2022-12-26T15:28:15.397Z,2.50
2022-12-26T15:30:45.678Z,2.58
2022-12-26T15:33:27.111Z,3.40
2022-12-26T15:36:07.089Z,1.63
2022-12-26T15:38:42.037Z,2.38
2022-12-26T15:41:40.278Z,1.50
2022-12-26T15:44:22.239Z,1.95
2022-12-26T15:46:55.809Z,2.70
2022-12-26T15:49:41.918Z,2.47
2022-12-26T15:52:27.715Z,3.75
2022-12-26T15:55:20.890Z,1.52
2022-12-26T15:57:58.487Z,1.75
2022-12-26T16:00:26.807Z,2.55
2022-12-26T16:03:06.562Z,1.55
2022-12-26T16:05:53.141Z,1.63
2022-12-26T16:08:41.170Z,1.45
2022-12-26T16:11:18.127Z,4.07
2022-12-26T16:14:01.424Z,6.40
2022-12-26T16:16:37.121Z,1.90
2022-12-26T16:19:23.947Z,1.40
2022-12-26T16:22:14.483Z,2.20
2022-12-26T16:24:41.521Z,2.70
2022-12-26T16:27:08.817Z,7.97
2022-12-26T16:29:44.391Z,2.38
2022-12-26T16:32:14.124Z,3.42
2022-12-26T16:34:40.884Z,3.85
2022-12-26T16:37:08.491Z,3.05
2022-12-26T16:39:35.277Z,3.38
2022-12-26T16:42:04.879Z,2.25
2022-12-26T16:44:36.187Z,3.65
2022-12-26T16:47:12.964Z,4.13
2022-12-26T16:49:41.637Z,2.80
2022-12-26T16:52:46.226Z,5.97
2022-12-26T16:55:37.009Z,4.82
2022-12-26T16:58:12.295Z,5.40
2022-12-26T17:00:39.069Z,3.25
2022-12-26T17:03:10.805Z,5.97
2022-12-26T17:09:44.767Z,1.98
2022-12-26T17:12:26.287Z,2.85
2022-12-26T17:14:53.572Z,2.25
2022-12-26T17:17:23.417Z,1.67
2022-12-26T17:19:54.162Z,3.05
2022-12-26T17:22:30.910Z,3.35
2022-12-26T17:25:21.874Z,2.88
2022-12-26T17:28:09.755Z,2.25
2022-12-26T17:30:37.684Z,1.77
2022-12-26T17:33:17.798Z,2.83
2022-12-26T17:36:44.703Z,6.18
2022-12-26T17:38:34.829Z,3.90
2022-12-26T17:41:03.238Z,3.80
2022-12-26T17:43:37.503Z,2.95
2022-12-26T17:46:05.254Z,4.35
2022-12-26T17:48:32.111Z,1.73
2022-12-26T17:51:00.448Z,3.47
2022-12-26T17:53:27.440Z,2.22
2022-12-26T17:55:54.966Z,2.80
2022-12-26T17:58:21.985Z,2.45
2022-12-26T18:00:48.984Z,2.40
2022-12-26T18:03:15.945Z,6.25
2022-12-26T18:05:42.846Z,2.75
2022-12-26T18:08:26.790Z,2.38
2022-12-26T18:10:53.651Z,1.63
2022-12-26T18:13:20.433Z,5.75
2022-12-26T18:15:47.214Z,2.65
2022-12-26T18:18:32.396Z,2.53
2022-12-26T18:20:59.286Z,2.20
2022-12-26T18:23:26.044Z,3.78
2022-12-26T18:25:59.950Z,2.03
2022-12-26T18:28:27.062Z,3.45
2022-12-26T18:30:55.095Z,7.28
2022-12-26T18:33:21.848Z,3.33
2022-12-26T18:35:48.615Z,4.00
2022-12-26T18:38:19.176Z,5.40
2022-12-26T18:40:50.685Z,2.25
2022-12-26T18:43:17.467Z,3.70
2022-12-26T18:45:44.351Z,4.47
2022-12-26T18:48:16.365Z,7.72
2022-12-26T18:50:43.273Z,3.15
2022-12-26T18:53:10.398Z,4.15
2022-12-26T18:55:37.186Z,3.08
2022-12-26T18:58:04.018Z,12.05
2022-12-26T19:00:31.054Z,10.65
2022-12-26T19:02:57.790Z,5.88
2022-12-26T19:05:30.868Z,3.47
2022-12-26T19:07:58.096Z,4.13
2022-12-26T19:10:27.776Z,5.60
2022-12-26T19:12:57.390Z,3.03
2022-12-26T19:15:28.071Z,2.47
2022-12-26T19:17:54.822Z,3.55
2022-12-26T19:20:22.962Z,2.03
2022-12-26T19:22:50.588Z,2.45
2022-12-26T19:25:17.773Z,12.75
2022-12-26T19:27:44.918Z,53.38
2022-12-26T19:30:12.316Z,25.52
2022-12-26T19:32:39.259Z,29.25
2022-12-26T19:35:06.753Z,52.13
2022-12-26T19:37:33.578Z,47.67
2022-12-26T19:40:00.401Z,31.20
2022-12-26T19:42:27.559Z,16.90
2022-12-26T19:44:54.356Z,11.15
2022-12-26T19:47:21.266Z,4.43
2022-12-26T19:49:48.023Z,2.83
2022-12-26T19:52:14.799Z,4.40
2022-12-26T19:54:41.700Z,2.25
2022-12-26T19:57:08.489Z,2.10
2022-12-26T19:59:35.346Z,2.40
2022-12-26T20:02:02.841Z,7.78
2022-12-26T20:04:29.764Z,3.50
2022-12-26T20:06:59.333Z,3.30
2022-12-26T20:09:26.223Z,4.68
2022-12-26T20:11:55.840Z,2.03
2022-12-26T20:14:23.949Z,2.65
2022-12-26T20:17:09.659Z,4.35
2022-12-26T20:19:36.826Z,4.10
2022-12-26T20:22:04.131Z,6.97
2022-12-26T20:24:30.961Z,2.10
2022-12-26T20:26:57.764Z,1.42
2022-12-26T20:29:24.556Z,2.83
2022-12-26T20:31:55.085Z,1.88
2022-12-26T20:34:22.039Z,2.17
2022-12-26T20:36:48.880Z,2.88
2022-12-26T20:39:16.998Z,3.25
2022-12-26T20:41:43.831Z,6.13
2022-12-26T20:44:15.218Z,3.25
2022-12-26T20:46:42.143Z,3.92
2022-12-26T20:49:09.888Z,5.55
2022-12-26T20:51:38.458Z,5.25
2022-12-26T20:54:08.864Z,6.60
2022-12-26T20:56:36.254Z,7.15
2022-12-26T20:59:03.388Z,6.28
2022-12-26T21:01:30.336Z,11.40
2022-12-26T21:03:57.465Z,4.15
2022-12-26T21:06:25.574Z,5.43
2022-12-26T21:08:52.943Z,4.53
2022-12-26T21:11:24.871Z,3.35
2022-12-26T21:13:52.392Z,4.43
2022-12-26T21:16:28.182Z,8.13
2022-12-26T21:18:55.150Z,8.63
2022-12-26T21:21:24.368Z,4.95
2022-12-26T21:23:55.683Z,6.13
2022-12-26T21:26:22.627Z,3.45
2022-12-26T21:28:49.386Z,5.22
2022-12-26T21:31:16.183Z,10.25
2022-12-26T21:33:44.901Z,6.82
2022-12-26T21:36:12.532Z,6.53
2022-12-26T21:38:39.349Z,5.60
2022-12-26T21:41:10.282Z,5.80
2022-12-26T21:44:30.140Z,6.05
2022-12-26T21:46:56.954Z,7.50
2022-12-26T21:49:24.415Z,6.38
2022-12-26T21:51:51.286Z,5.93
2022-12-26T21:54:36.947Z,8.65
2022-12-26T21:57:04.107Z,5.68
2022-12-26T21:59:49.605Z,4.32
2022-12-26T22:02:54.952Z,10.98
2022-12-26T22:05:24.933Z,8.98
2022-12-26T22:07:55.954Z,9.88
2022-12-26T22:10:42.269Z,5.80
2022-12-26T22:13:09.111Z,5.45
2022-12-26T22:15:59.138Z,8.20
2022-12-26T22:18:26.151Z,9.63
2022-12-26T22:20:52.948Z,5.22
2022-12-26T22:23:19.875Z,11.77
2022-12-26T22:25:54.327Z,8.63
2022-12-26T22:28:23.526Z,9.82
2022-12-26T22:30:50.875Z,8.52
2022-12-26T22:33:18.401Z,10.55
2022-12-26T22:35:46.265Z,8.68
2022-12-26T22:38:13.401Z,5.95
2022-12-26T22:40:40.183Z,6.38
2022-12-26T22:43:07.032Z,8.52
2022-12-26T22:45:33.846Z,4.55
2022-12-26T22:48:00.624Z,5.65
2022-12-26T22:50:27.563Z,7.28
2022-12-26T22:52:54.408Z,8.32
2022-12-26T22:55:21.437Z,9.73
2022-12-26T22:57:52.421Z,5.70
2022-12-26T23:00:19.925Z,3.10
2022-12-26T23:02:46.777Z,3.42
2022-12-26T23:05:14.209Z,6.25
2022-12-26T23:07:41.317Z,4.07
2022-12-26T23:10:08.748Z,5.88
2022-12-26T23:12:44.802Z,3.40
2022-12-26T23:15:22.627Z,3.88
2022-12-26T23:18:22.226Z,3.88
2022-12-26T23:21:07.645Z,5.00
2022-12-26T23:23:34.655Z,4.90
2022-12-26T23:26:01.471Z,5.53
2022-12-26T23:28:47.079Z,5.10
2022-12-26T23:31:14.097Z,3.85
2022-12-26T23:33:40.915Z,4.03
2022-12-26T23:36:08.343Z,6.07
2022-12-26T23:38:35.189Z,2.33
2022-12-26T23:41:01.982Z,5.85
2022-12-26T23:47:43.247Z,4.53
2022-12-26T23:50:11.396Z,1.98
2022-12-26T23:52:38.313Z,4.65
2022-12-26T23:55:05.687Z,4.47
2022-12-26T23:57:32.531Z,2.50
2022-12-26T23:59:59.298Z,3.72
